sensor_id;sensor_type;location;lat;lon;timestamp;temperature;humidity
46732;DHT22;32477;51.474;5.696;2022-11-11T00:00:11;8.60;99.90
46732;DHT22;32477;51.474;5.696;2022-11-11T00:02:37;8.70;99.90
46732;DHT22;32477;51.474;5.696;2022-11-11T00:05:03;8.70;99.90
46732;DHT22;32477;51.474;5.696;2022-11-11T00:07:29;8.60;99.90
46732;DHT22;32477;51.474;5.696;2022-11-11T00:09:54;8.60;99.90
46732;DHT22;32477;51.474;5.696;2022-11-11T00:12:20;8.70;99.90
46732;DHT22;32477;51.474;5.696;2022-11-11T00:14:46;8.60;99.90
46732;DHT22;32477;51.474;5.696;2022-11-11T00:17:12;8.60;99.90
46732;DHT22;32477;51.474;5.696;2022-11-11T00:19:56;8.60;99.90
46732;DHT22;32477;51.474;5.696;2022-11-11T00:22:40;8.50;99.90
46732;DHT22;32477;51.474;5.696;2022-11-11T00:25:25;8.50;99.90
46732;DHT22;32477;51.474;5.696;2022-11-11T00:27:51;8.50;99.90
46732;DHT22;32477;51.474;5.696;2022-11-11T00:30:16;8.50;99.90
46732;DHT22;32477;51.474;5.696;2022-11-11T00:32:42;8.50;99.90
46732;DHT22;32477;51.474;5.696;2022-11-11T00:35:08;8.50;99.90
46732;DHT22;32477;51.474;5.696;2022-11-11T00:37:53;8.60;99.90
46732;DHT22;32477;51.474;5.696;2022-11-11T00:40:18;8.60;99.90
46732;DHT22;32477;51.474;5.696;2022-11-11T00:42:44;8.70;99.90
46732;DHT22;32477;51.474;5.696;2022-11-11T00:45:10;8.80;99.90
46732;DHT22;32477;51.474;5.696;2022-11-11T00:47:36;8.80;99.90
46732;DHT22;32477;51.474;5.696;2022-11-11T00:50:24;8.80;99.90
46732;DHT22;32477;51.474;5.696;2022-11-11T00:53:20;9.00;99.90
46732;DHT22;32477;51.474;5.696;2022-11-11T00:55:46;9.00;99.90
46732;DHT22;32477;51.474;5.696;2022-11-11T00:58:11;9.00;99.90
46732;DHT22;32477;51.474;5.696;2022-11-11T01:00:37;9.10;99.90
46732;DHT22;32477;51.474;5.696;2022-11-11T01:03:03;9.10;99.90
46732;DHT22;32477;51.474;5.696;2022-11-11T01:05:29;9.20;99.90
46732;DHT22;32477;51.474;5.696;2022-11-11T01:07:55;9.20;99.90
46732;DHT22;32477;51.474;5.696;2022-11-11T01:10:21;9.20;99.90
46732;DHT22;32477;51.474;5.696;2022-11-11T01:13:06;9.30;99.90
46732;DHT22;32477;51.474;5.696;2022-11-11T01:15:39;9.30;99.90
46732;DHT22;32477;51.474;5.696;2022-11-11T01:18:05;9.30;99.90
46732;DHT22;32477;51.474;5.696;2022-11-11T01:20:31;9.30;99.90
46732;DHT22;32477;51.474;5.696;2022-11-11T01:22:57;9.40;99.90
46732;DHT22;32477;51.474;5.696;2022-11-11T01:25:23;9.40;99.90
46732;DHT22;32477;51.474;5.696;2022-11-11T01:27:48;9.50;99.90
46732;DHT22;32477;51.474;5.696;2022-11-11T01:30:15;9.50;99.90
46732;DHT22;32477;51.474;5.696;2022-11-11T01:32:40;9.50;99.90
46732;DHT22;32477;51.474;5.696;2022-11-11T01:35:07;9.50;99.90
46732;DHT22;32477;51.474;5.696;2022-11-11T01:37:34;9.50;99.90
46732;DHT22;32477;51.474;5.696;2022-11-11T01:40:00;9.50;99.90
46732;DHT22;32477;51.474;5.696;2022-11-11T01:42:25;9.60;99.90
46732;DHT22;32477;51.474;5.696;2022-11-11T01:44:51;9.60;99.90
46732;DHT22;32477;51.474;5.696;2022-11-11T01:47:17;9.50;99.90
46732;DHT22;32477;51.474;5.696;2022-11-11T01:52:21;9.50;99.90
46732;DHT22;32477;51.474;5.696;2022-11-11T01:57:35;9.60;99.90
46732;DHT22;32477;51.474;5.696;2022-11-11T02:00:11;9.50;99.90
46732;DHT22;32477;51.474;5.696;2022-11-11T02:05:17;9.60;99.90
46732;DHT22;32477;51.474;5.696;2022-11-11T02:08:28;9.60;99.90
46732;DHT22;32477;51.474;5.696;2022-11-11T02:11:10;9.60;99.90
46732;DHT22;32477;51.474;5.696;2022-11-11T02:13:41;9.60;99.90
46732;DHT22;32477;51.474;5.696;2022-11-11T02:16:26;9.70;99.90
46732;DHT22;32477;51.474;5.696;2022-11-11T02:18:53;9.60;99.90
46732;DHT22;32477;51.474;5.696;2022-11-11T02:21:29;9.60;99.90
46732;DHT22;32477;51.474;5.696;2022-11-11T02:24:10;9.60;99.90
46732;DHT22;32477;51.474;5.696;2022-11-11T02:26:38;9.60;99.90
46732;DHT22;32477;51.474;5.696;2022-11-11T02:29:09;9.60;99.90
46732;DHT22;32477;51.474;5.696;2022-11-11T02:31:35;9.70;99.90
46732;DHT22;32477;51.474;5.696;2022-11-11T02:34:01;9.60;99.90
46732;DHT22;32477;51.474;5.696;2022-11-11T02:36:27;9.60;99.90
46732;DHT22;32477;51.474;5.696;2022-11-11T02:38:53;9.60;99.90
46732;DHT22;32477;51.474;5.696;2022-11-11T02:41:18;9.60;99.90
46732;DHT22;32477;51.474;5.696;2022-11-11T02:44:03;9.60;99.90
46732;DHT22;32477;51.474;5.696;2022-11-11T02:46:28;9.60;99.90
46732;DHT22;32477;51.474;5.696;2022-11-11T02:48:54;9.50;99.90
46732;DHT22;32477;51.474;5.696;2022-11-11T02:51:19;9.50;99.90
46732;DHT22;32477;51.474;5.696;2022-11-11T02:53:45;9.50;99.90
46732;DHT22;32477;51.474;5.696;2022-11-11T02:56:10;9.50;99.90
46732;DHT22;32477;51.474;5.696;2022-11-11T02:58:36;9.50;99.90
46732;DHT22;32477;51.474;5.696;2022-11-11T03:01:02;9.50;99.90
46732;DHT22;32477;51.474;5.696;2022-11-11T03:03:27;9.50;99.90
46732;DHT22;32477;51.474;5.696;2022-11-11T03:05:53;9.50;99.90
46732;DHT22;32477;51.474;5.696;2022-11-11T03:08:19;9.50;99.90
46732;DHT22;32477;51.474;5.696;2022-11-11T03:10:45;9.40;99.90
46732;DHT22;32477;51.474;5.696;2022-11-11T03:13:10;9.40;99.90
46732;DHT22;32477;51.474;5.696;2022-11-11T03:15:36;9.40;99.90
46732;DHT22;32477;51.474;5.696;2022-11-11T03:18:01;9.30;99.90
46732;DHT22;32477;51.474;5.696;2022-11-11T03:20:27;9.30;99.90
46732;DHT22;32477;51.474;5.696;2022-11-11T03:23:13;9.30;99.90
46732;DHT22;32477;51.474;5.696;2022-11-11T03:25:46;9.20;99.90
46732;DHT22;32477;51.474;5.696;2022-11-11T03:28:17;9.20;99.90
46732;DHT22;32477;51.474;5.696;2022-11-11T03:30:45;9.20;99.90
46732;DHT22;32477;51.474;5.696;2022-11-11T03:33:12;9.20;99.90
46732;DHT22;32477;51.474;5.696;2022-11-11T03:35:38;9.20;99.90
46732;DHT22;32477;51.474;5.696;2022-11-11T03:38:05;9.20;99.90
46732;DHT22;32477;51.474;5.696;2022-11-11T03:40:44;9.20;99.90
46732;DHT22;32477;51.474;5.696;2022-11-11T03:43:15;9.20;99.90
46732;DHT22;32477;51.474;5.696;2022-11-11T03:45:41;9.10;99.90
46732;DHT22;32477;51.474;5.696;2022-11-11T03:48:07;9.20;99.90
46732;DHT22;32477;51.474;5.696;2022-11-11T03:50:33;9.10;99.90
46732;DHT22;32477;51.474;5.696;2022-11-11T03:52:59;9.10;99.90
46732;DHT22;32477;51.474;5.696;2022-11-11T03:55:25;9.10;99.90
46732;DHT22;32477;51.474;5.696;2022-11-11T03:57:51;9.00;99.90
46732;DHT22;32477;51.474;5.696;2022-11-11T04:00:19;9.00;99.90
46732;DHT22;32477;51.474;5.696;2022-11-11T04:02:46;8.90;99.90
46732;DHT22;32477;51.474;5.696;2022-11-11T04:05:30;8.90;99.90
46732;DHT22;32477;51.474;5.696;2022-11-11T04:08:16;8.80;99.90
46732;DHT22;32477;51.474;5.696;2022-11-11T04:11:04;8.60;99.90
46732;DHT22;32477;51.474;5.696;2022-11-11T04:13:32;8.40;99.90
46732;DHT22;32477;51.474;5.696;2022-11-11T04:16:16;8.20;99.90
46732;DHT22;32477;51.474;5.696;2022-11-11T04:18:42;8.10;99.90
46732;DHT22;32477;51.474;5.696;2022-11-11T04:21:26;7.90;99.90
46732;DHT22;32477;51.474;5.696;2022-11-11T04:24:12;7.80;99.90
46732;DHT22;32477;51.474;5.696;2022-11-11T04:26:59;7.70;99.90
46732;DHT22;32477;51.474;5.696;2022-11-11T04:29:26;7.60;99.90
46732;DHT22;32477;51.474;5.696;2022-11-11T04:34:45;7.50;99.90
46732;DHT22;32477;51.474;5.696;2022-11-11T04:37:11;7.40;99.90
46732;DHT22;32477;51.474;5.696;2022-11-11T04:39:37;7.40;99.90
46732;DHT22;32477;51.474;5.696;2022-11-11T04:42:21;7.30;99.90
46732;DHT22;32477;51.474;5.696;2022-11-11T04:44:47;7.30;99.90
46732;DHT22;32477;51.474;5.696;2022-11-11T04:47:31;7.20;99.90
46732;DHT22;32477;51.474;5.696;2022-11-11T04:49:57;7.20;99.90
46732;DHT22;32477;51.474;5.696;2022-11-11T04:52:23;7.20;99.90
46732;DHT22;32477;51.474;5.696;2022-11-11T04:54:55;7.20;99.90
46732;DHT22;32477;51.474;5.696;2022-11-11T04:57:45;7.10;99.90
46732;DHT22;32477;51.474;5.696;2022-11-11T05:00:16;7.00;99.90
46732;DHT22;32477;51.474;5.696;2022-11-11T05:02:43;7.00;99.90
46732;DHT22;32477;51.474;5.696;2022-11-11T05:05:28;7.00;99.90
46732;DHT22;32477;51.474;5.696;2022-11-11T05:08:14;7.00;99.90
46732;DHT22;32477;51.474;5.696;2022-11-11T05:10:58;6.90;99.90
46732;DHT22;32477;51.474;5.696;2022-11-11T05:13:24;6.90;99.90
46732;DHT22;32477;51.474;5.696;2022-11-11T05:16:18;6.90;99.90
46732;DHT22;32477;51.474;5.696;2022-11-11T05:19:03;6.90;99.90
46732;DHT22;32477;51.474;5.696;2022-11-11T05:21:48;6.80;99.90
46732;DHT22;32477;51.474;5.696;2022-11-11T05:24:14;6.80;99.90
46732;DHT22;32477;51.474;5.696;2022-11-11T05:26:58;6.80;99.90
46732;DHT22;32477;51.474;5.696;2022-11-11T05:29:24;6.80;99.90
46732;DHT22;32477;51.474;5.696;2022-11-11T05:31:50;6.80;99.90
46732;DHT22;32477;51.474;5.696;2022-11-11T05:34:15;6.80;99.90
46732;DHT22;32477;51.474;5.696;2022-11-11T05:36:41;6.80;99.90
46732;DHT22;32477;51.474;5.696;2022-11-11T05:39:06;6.70;99.90
46732;DHT22;32477;51.474;5.696;2022-11-11T05:41:32;6.70;99.90
46732;DHT22;32477;51.474;5.696;2022-11-11T05:43:57;6.80;99.90
46732;DHT22;32477;51.474;5.696;2022-11-11T05:46:23;6.70;99.90
46732;DHT22;32477;51.474;5.696;2022-11-11T05:48:49;6.80;99.90
46732;DHT22;32477;51.474;5.696;2022-11-11T05:51:33;6.70;99.90
46732;DHT22;32477;51.474;5.696;2022-11-11T05:53:58;6.60;99.90
46732;DHT22;32477;51.474;5.696;2022-11-11T05:56:24;6.60;99.90
46732;DHT22;32477;51.474;5.696;2022-11-11T05:58:50;6.50;99.90
46732;DHT22;32477;51.474;5.696;2022-11-11T06:01:15;6.60;99.90
46732;DHT22;32477;51.474;5.696;2022-11-11T06:03:41;6.60;99.90
46732;DHT22;32477;51.474;5.696;2022-11-11T06:06:07;6.60;99.90
46732;DHT22;32477;51.474;5.696;2022-11-11T06:08:33;6.60;99.90
46732;DHT22;32477;51.474;5.696;2022-11-11T06:10:58;6.60;99.90
46732;DHT22;32477;51.474;5.696;2022-11-11T06:13:24;6.60;99.90
46732;DHT22;32477;51.474;5.696;2022-11-11T06:15:49;6.50;99.90
46732;DHT22;32477;51.474;5.696;2022-11-11T06:18:15;6.50;99.90
46732;DHT22;32477;51.474;5.696;2022-11-11T06:20:41;6.50;99.90
46732;DHT22;32477;51.474;5.696;2022-11-11T06:23:06;6.60;99.90
46732;DHT22;32477;51.474;5.696;2022-11-11T06:25:33;6.60;99.90
46732;DHT22;32477;51.474;5.696;2022-11-11T06:28:17;6.50;99.90
46732;DHT22;32477;51.474;5.696;2022-11-11T06:30:44;6.50;99.90
46732;DHT22;32477;51.474;5.696;2022-11-11T06:33:10;6.50;99.90
46732;DHT22;32477;51.474;5.696;2022-11-11T06:35:37;6.50;99.90
46732;DHT22;32477;51.474;5.696;2022-11-11T06:38:05;6.50;99.90
46732;DHT22;32477;51.474;5.696;2022-11-11T06:40:30;6.50;99.90
46732;DHT22;32477;51.474;5.696;2022-11-11T06:43:00;6.50;99.90
46732;DHT22;32477;51.474;5.696;2022-11-11T06:45:27;6.50;99.90
46732;DHT22;32477;51.474;5.696;2022-11-11T06:47:53;6.60;99.90
46732;DHT22;32477;51.474;5.696;2022-11-11T06:50:19;6.50;99.90
46732;DHT22;32477;51.474;5.696;2022-11-11T06:52:45;6.60;99.90
46732;DHT22;32477;51.474;5.696;2022-11-11T06:55:11;6.50;99.90
46732;DHT22;32477;51.474;5.696;2022-11-11T06:57:37;6.50;99.90
46732;DHT22;32477;51.474;5.696;2022-11-11T07:00:04;6.60;99.90
46732;DHT22;32477;51.474;5.696;2022-11-11T07:02:30;6.60;99.90
46732;DHT22;32477;51.474;5.696;2022-11-11T07:04:56;6.60;99.90
46732;DHT22;32477;51.474;5.696;2022-11-11T07:07:22;6.50;99.90
46732;DHT22;32477;51.474;5.696;2022-11-11T07:09:48;6.50;99.90
46732;DHT22;32477;51.474;5.696;2022-11-11T07:12:13;6.50;99.90
46732;DHT22;32477;51.474;5.696;2022-11-11T07:14:39;6.60;99.90
46732;DHT22;32477;51.474;5.696;2022-11-11T07:17:05;6.60;99.90
46732;DHT22;32477;51.474;5.696;2022-11-11T07:19:30;6.60;99.90
46732;DHT22;32477;51.474;5.696;2022-11-11T07:21:56;6.70;99.90
46732;DHT22;32477;51.474;5.696;2022-11-11T07:24:21;6.70;99.90
46732;DHT22;32477;51.474;5.696;2022-11-11T07:26:47;6.70;99.90
46732;DHT22;32477;51.474;5.696;2022-11-11T07:29:13;6.70;99.90
46732;DHT22;32477;51.474;5.696;2022-11-11T07:31:40;6.70;99.90
46732;DHT22;32477;51.474;5.696;2022-11-11T07:34:06;6.80;99.90
46732;DHT22;32477;51.474;5.696;2022-11-11T07:36:31;6.90;99.90
46732;DHT22;32477;51.474;5.696;2022-11-11T07:38:57;6.90;99.90
46732;DHT22;32477;51.474;5.696;2022-11-11T07:41:23;7.00;99.90
46732;DHT22;32477;51.474;5.696;2022-11-11T07:43:48;7.00;99.90
46732;DHT22;32477;51.474;5.696;2022-11-11T07:46:14;7.00;99.90
46732;DHT22;32477;51.474;5.696;2022-11-11T07:48:39;7.10;99.90
46732;DHT22;32477;51.474;5.696;2022-11-11T07:51:05;7.10;99.90
46732;DHT22;32477;51.474;5.696;2022-11-11T07:53:31;7.20;99.90
46732;DHT22;32477;51.474;5.696;2022-11-11T07:55:56;7.20;99.90
46732;DHT22;32477;51.474;5.696;2022-11-11T07:58:22;7.30;99.90
46732;DHT22;32477;51.474;5.696;2022-11-11T08:00:48;7.30;99.90
46732;DHT22;32477;51.474;5.696;2022-11-11T08:03:13;7.40;99.90
46732;DHT22;32477;51.474;5.696;2022-11-11T08:05:39;7.40;99.90
46732;DHT22;32477;51.474;5.696;2022-11-11T08:08:05;7.40;99.90
46732;DHT22;32477;51.474;5.696;2022-11-11T08:10:32;7.50;99.90
46732;DHT22;32477;51.474;5.696;2022-11-11T08:12:57;7.50;99.90
46732;DHT22;32477;51.474;5.696;2022-11-11T08:15:41;7.60;99.90
46732;DHT22;32477;51.474;5.696;2022-11-11T08:18:07;7.60;99.90
46732;DHT22;32477;51.474;5.696;2022-11-11T08:20:33;7.70;99.90
46732;DHT22;32477;51.474;5.696;2022-11-11T08:22:59;7.80;99.90
46732;DHT22;32477;51.474;5.696;2022-11-11T08:25:25;7.90;99.90
46732;DHT22;32477;51.474;5.696;2022-11-11T08:28:02;7.90;99.90
46732;DHT22;32477;51.474;5.696;2022-11-11T08:30:28;8.00;99.90
46732;DHT22;32477;51.474;5.696;2022-11-11T08:33:02;8.00;99.90
46732;DHT22;32477;51.474;5.696;2022-11-11T08:35:28;8.10;99.90
46732;DHT22;32477;51.474;5.696;2022-11-11T08:37:54;8.20;99.90
46732;DHT22;32477;51.474;5.696;2022-11-11T08:40:20;8.20;99.90
46732;DHT22;32477;51.474;5.696;2022-11-11T08:42:46;8.30;99.90
46732;DHT22;32477;51.474;5.696;2022-11-11T08:45:12;8.30;99.90
46732;DHT22;32477;51.474;5.696;2022-11-11T08:47:38;8.40;99.90
46732;DHT22;32477;51.474;5.696;2022-11-11T08:50:05;8.50;99.90
46732;DHT22;32477;51.474;5.696;2022-11-11T08:52:31;8.60;99.90
46732;DHT22;32477;51.474;5.696;2022-11-11T08:54:57;8.60;99.90
46732;DHT22;32477;51.474;5.696;2022-11-11T08:57:24;8.70;99.90
46732;DHT22;32477;51.474;5.696;2022-11-11T08:59:50;8.80;99.90
46732;DHT22;32477;51.474;5.696;2022-11-11T09:02:16;8.90;99.90
46732;DHT22;32477;51.474;5.696;2022-11-11T09:04:41;9.00;99.90
46732;DHT22;32477;51.474;5.696;2022-11-11T09:07:08;9.10;99.90
46732;DHT22;32477;51.474;5.696;2022-11-11T09:09:34;9.20;99.90
46732;DHT22;32477;51.474;5.696;2022-11-11T09:12:00;9.20;99.90
46732;DHT22;32477;51.474;5.696;2022-11-11T09:14:26;9.20;99.90
46732;DHT22;32477;51.474;5.696;2022-11-11T09:16:52;9.20;99.90
46732;DHT22;32477;51.474;5.696;2022-11-11T09:19:18;9.30;99.90
46732;DHT22;32477;51.474;5.696;2022-11-11T09:21:44;9.30;99.90
46732;DHT22;32477;51.474;5.696;2022-11-11T09:24:09;9.30;99.90
46732;DHT22;32477;51.474;5.696;2022-11-11T09:26:35;9.40;99.90
46732;DHT22;32477;51.474;5.696;2022-11-11T09:29:01;9.50;99.90
46732;DHT22;32477;51.474;5.696;2022-11-11T09:31:26;9.50;99.90
46732;DHT22;32477;51.474;5.696;2022-11-11T09:33:52;9.60;99.90
46732;DHT22;32477;51.474;5.696;2022-11-11T09:36:18;9.80;99.90
46732;DHT22;32477;51.474;5.696;2022-11-11T09:38:44;9.90;99.90
46732;DHT22;32477;51.474;5.696;2022-11-11T09:41:23;10.10;99.90
46732;DHT22;32477;51.474;5.696;2022-11-11T09:43:58;10.40;99.90
46732;DHT22;32477;51.474;5.696;2022-11-11T09:52:16;11.00;99.90
46732;DHT22;32477;51.474;5.696;2022-11-11T09:54:51;11.40;99.90
46732;DHT22;32477;51.474;5.696;2022-11-11T09:57:46;11.60;99.90
46732;DHT22;32477;51.474;5.696;2022-11-11T10:00:20;11.60;99.90
46732;DHT22;32477;51.474;5.696;2022-11-11T10:02:51;11.60;99.90
46732;DHT22;32477;51.474;5.696;2022-11-11T10:10:21;12.50;99.90
46732;DHT22;32477;51.474;5.696;2022-11-11T10:12:56;12.70;99.90
46732;DHT22;32477;51.474;5.696;2022-11-11T10:15:25;12.80;99.90
46732;DHT22;32477;51.474;5.696;2022-11-11T10:21:13;13.60;99.90
46732;DHT22;32477;51.474;5.696;2022-11-11T10:23:39;13.50;99.90
46732;DHT22;32477;51.474;5.696;2022-11-11T10:26:24;13.90;99.90
46732;DHT22;32477;51.474;5.696;2022-11-11T10:28:52;14.30;99.90
46732;DHT22;32477;51.474;5.696;2022-11-11T10:31:20;14.20;99.90
46732;DHT22;32477;51.474;5.696;2022-11-11T10:33:51;14.00;99.90
46732;DHT22;32477;51.474;5.696;2022-11-11T10:36:20;13.70;99.90
46732;DHT22;32477;51.474;5.696;2022-11-11T10:39:04;13.70;99.90
46732;DHT22;32477;51.474;5.696;2022-11-11T10:43:59;14.70;99.90
46732;DHT22;32477;51.474;5.696;2022-11-11T10:46:37;15.00;99.90
46732;DHT22;32477;51.474;5.696;2022-11-11T10:49:19;15.30;99.90
46732;DHT22;32477;51.474;5.696;2022-11-11T10:51:50;15.40;99.90
46732;DHT22;32477;51.474;5.696;2022-11-11T10:54:24;15.10;99.90
46732;DHT22;32477;51.474;5.696;2022-11-11T10:59:34;14.50;99.90
46732;DHT22;32477;51.474;5.696;2022-11-11T11:02:28;14.20;99.90
46732;DHT22;32477;51.474;5.696;2022-11-11T11:05:07;14.20;99.90
46732;DHT22;32477;51.474;5.696;2022-11-11T11:07:52;14.40;99.90
46732;DHT22;32477;51.474;5.696;2022-11-11T11:10:24;14.20;99.90
46732;DHT22;32477;51.474;5.696;2022-11-11T11:12:52;14.20;99.90
46732;DHT22;32477;51.474;5.696;2022-11-11T11:15:22;14.20;99.90
46732;DHT22;32477;51.474;5.696;2022-11-11T11:18:07;14.20;99.90
46732;DHT22;32477;51.474;5.696;2022-11-11T11:20:36;14.20;99.90
46732;DHT22;32477;51.474;5.696;2022-11-11T11:23:02;14.20;99.90
46732;DHT22;32477;51.474;5.696;2022-11-11T11:25:30;14.10;99.90
46732;DHT22;32477;51.474;5.696;2022-11-11T11:28:12;14.10;99.90
46732;DHT22;32477;51.474;5.696;2022-11-11T11:30:38;14.20;99.90
46732;DHT22;32477;51.474;5.696;2022-11-11T11:33:06;14.30;99.90
46732;DHT22;32477;51.474;5.696;2022-11-11T11:35:42;14.40;99.90
46732;DHT22;32477;51.474;5.696;2022-11-11T11:38:11;14.50;99.90
46732;DHT22;32477;51.474;5.696;2022-11-11T11:40:54;14.50;99.90
46732;DHT22;32477;51.474;5.696;2022-11-11T11:43:34;14.70;99.90
46732;DHT22;32477;51.474;5.696;2022-11-11T11:46:03;15.00;99.90
46732;DHT22;32477;51.474;5.696;2022-11-11T11:56:44;15.30;99.90
46732;DHT22;32477;51.474;5.696;2022-11-11T12:16:11;15.70;99.90
46732;DHT22;32477;51.474;5.696;2022-11-11T12:18:50;15.70;99.90
46732;DHT22;32477;51.474;5.696;2022-11-11T12:21:27;15.80;99.90
46732;DHT22;32477;51.474;5.696;2022-11-11T12:26:39;16.00;99.90
46732;DHT22;32477;51.474;5.696;2022-11-11T12:35:05;16.30;99.90
46732;DHT22;32477;51.474;5.696;2022-11-11T12:37:45;16.60;99.90
46732;DHT22;32477;51.474;5.696;2022-11-11T12:40:18;16.80;99.90
46732;DHT22;32477;51.474;5.696;2022-11-11T12:48:19;17.00;99.90
46732;DHT22;32477;51.474;5.696;2022-11-11T12:56:28;17.40;99.90
46732;DHT22;32477;51.474;5.696;2022-11-11T13:04:43;17.60;99.90
46732;DHT22;32477;51.474;5.696;2022-11-11T13:12:55;16.80;99.90
46732;DHT22;32477;51.474;5.696;2022-11-11T13:15:26;16.40;99.90
46732;DHT22;32477;51.474;5.696;2022-11-11T13:17:52;16.20;99.90
46732;DHT22;32477;51.474;5.696;2022-11-11T13:20:27;16.10;99.90
46732;DHT22;32477;51.474;5.696;2022-11-11T13:22:53;16.00;99.90
46732;DHT22;32477;51.474;5.696;2022-11-11T13:25:25;16.00;99.90
46732;DHT22;32477;51.474;5.696;2022-11-11T13:27:57;15.90;99.90
46732;DHT22;32477;51.474;5.696;2022-11-11T13:33:20;15.70;99.90
46732;DHT22;32477;51.474;5.696;2022-11-11T13:35:53;15.70;99.90
46732;DHT22;32477;51.474;5.696;2022-11-11T13:38:31;15.60;99.90
46732;DHT22;32477;51.474;5.696;2022-11-11T13:41:05;15.60;99.90
46732;DHT22;32477;51.474;5.696;2022-11-11T13:43:49;15.60;99.90
46732;DHT22;32477;51.474;5.696;2022-11-11T13:46:42;15.60;99.90
46732;DHT22;32477;51.474;5.696;2022-11-11T13:49:31;15.40;99.90
46732;DHT22;32477;51.474;5.696;2022-11-11T13:52:03;15.20;99.90
46732;DHT22;32477;51.474;5.696;2022-11-11T13:54:39;15.20;99.90
46732;DHT22;32477;51.474;5.696;2022-11-11T13:59:41;15.10;99.90
46732;DHT22;32477;51.474;5.696;2022-11-11T14:07:59;15.00;99.90
46732;DHT22;32477;51.474;5.696;2022-11-11T14:12:55;14.90;99.90
46732;DHT22;32477;51.474;5.696;2022-11-11T14:15:43;14.90;99.90
46732;DHT22;32477;51.474;5.696;2022-11-11T14:20:48;14.80;99.90
46732;DHT22;32477;51.474;5.696;2022-11-11T14:25:43;14.70;99.90
46732;DHT22;32477;51.474;5.696;2022-11-11T14:28:29;14.60;99.90
46732;DHT22;32477;51.474;5.696;2022-11-11T14:31:48;14.60;99.90
46732;DHT22;32477;51.474;5.696;2022-11-11T14:49:45;14.40;99.90
46732;DHT22;32477;51.474;5.696;2022-11-11T14:52:40;14.20;99.90
46732;DHT22;32477;51.474;5.696;2022-11-11T14:55:20;14.00;99.90
46732;DHT22;32477;51.474;5.696;2022-11-11T15:00:27;13.80;99.90
46732;DHT22;32477;51.474;5.696;2022-11-11T15:03:01;13.60;99.90
46732;DHT22;32477;51.474;5.696;2022-11-11T15:05:46;13.50;99.90
46732;DHT22;32477;51.474;5.696;2022-11-11T15:10:52;13.20;99.90
46732;DHT22;32477;51.474;5.696;2022-11-11T15:25:13;12.40;99.90
46732;DHT22;32477;51.474;5.696;2022-11-11T15:30:15;12.00;99.90
46732;DHT22;32477;51.474;5.696;2022-11-11T15:33:11;11.80;99.90
46732;DHT22;32477;51.474;5.696;2022-11-11T15:35:45;11.50;99.90
46732;DHT22;32477;51.474;5.696;2022-11-11T15:38:16;11.20;99.90
46732;DHT22;32477;51.474;5.696;2022-11-11T15:40:53;11.00;99.90
46732;DHT22;32477;51.474;5.696;2022-11-11T15:43:28;10.70;99.90
46732;DHT22;32477;51.474;5.696;2022-11-11T15:46:03;10.50;99.90
46732;DHT22;32477;51.474;5.696;2022-11-11T15:48:41;10.20;99.90
46732;DHT22;32477;51.474;5.696;2022-11-11T15:51:30;10.00;99.90
46732;DHT22;32477;51.474;5.696;2022-11-11T15:54:32;9.80;99.90
46732;DHT22;32477;51.474;5.696;2022-11-11T15:56:58;9.60;99.90
46732;DHT22;32477;51.474;5.696;2022-11-11T15:59:30;9.50;99.90
46732;DHT22;32477;51.474;5.696;2022-11-11T16:01:57;9.40;99.90
46732;DHT22;32477;51.474;5.696;2022-11-11T16:04:24;9.30;99.90
46732;DHT22;32477;51.474;5.696;2022-11-11T16:06:50;9.20;99.90
46732;DHT22;32477;51.474;5.696;2022-11-11T16:09:23;9.10;99.90
46732;DHT22;32477;51.474;5.696;2022-11-11T16:11:50;9.10;99.90
46732;DHT22;32477;51.474;5.696;2022-11-11T16:14:26;9.00;99.90
46732;DHT22;32477;51.474;5.696;2022-11-11T16:16:56;8.90;99.90
46732;DHT22;32477;51.474;5.696;2022-11-11T16:19:35;8.80;99.90
46732;DHT22;32477;51.474;5.696;2022-11-11T16:22:16;8.70;99.90
46732;DHT22;32477;51.474;5.696;2022-11-11T16:24:43;8.60;99.90
46732;DHT22;32477;51.474;5.696;2022-11-11T16:27:15;8.60;99.90
46732;DHT22;32477;51.474;5.696;2022-11-11T16:29:42;8.60;99.90
46732;DHT22;32477;51.474;5.696;2022-11-11T16:32:30;8.60;99.90
46732;DHT22;32477;51.474;5.696;2022-11-11T16:34:56;8.50;99.90
46732;DHT22;32477;51.474;5.696;2022-11-11T16:37:21;8.50;99.90
46732;DHT22;32477;51.474;5.696;2022-11-11T16:39:47;8.50;99.90
46732;DHT22;32477;51.474;5.696;2022-11-11T16:42:26;8.40;99.90
46732;DHT22;32477;51.474;5.696;2022-11-11T16:45:00;8.40;99.90
46732;DHT22;32477;51.474;5.696;2022-11-11T16:52:56;8.20;99.90
46732;DHT22;32477;51.474;5.696;2022-11-11T16:55:59;8.10;99.90
46732;DHT22;32477;51.474;5.696;2022-11-11T16:58:26;8.00;99.90
46732;DHT22;32477;51.474;5.696;2022-11-11T17:00:59;7.90;99.90
46732;DHT22;32477;51.474;5.696;2022-11-11T17:03:26;7.80;99.90
46732;DHT22;32477;51.474;5.696;2022-11-11T17:05:59;7.90;99.90
46732;DHT22;32477;51.474;5.696;2022-11-11T17:08:35;7.90;99.90
46732;DHT22;32477;51.474;5.696;2022-11-11T17:11:03;7.90;99.90
46732;DHT22;32477;51.474;5.696;2022-11-11T17:13:30;8.00;99.90
46732;DHT22;32477;51.474;5.696;2022-11-11T17:16:02;8.00;99.90
46732;DHT22;32477;51.474;5.696;2022-11-11T17:18:32;7.90;99.90
46732;DHT22;32477;51.474;5.696;2022-11-11T17:20:58;7.80;99.90
46732;DHT22;32477;51.474;5.696;2022-11-11T17:23:24;7.80;99.90
46732;DHT22;32477;51.474;5.696;2022-11-11T17:25:53;7.70;99.90
46732;DHT22;32477;51.474;5.696;2022-11-11T17:28:20;7.80;99.90
46732;DHT22;32477;51.474;5.696;2022-11-11T17:30:46;7.80;99.90
46732;DHT22;32477;51.474;5.696;2022-11-11T17:33:12;7.90;99.90
46732;DHT22;32477;51.474;5.696;2022-11-11T17:35:37;7.80;99.90
46732;DHT22;32477;51.474;5.696;2022-11-11T17:38:03;7.80;99.90
46732;DHT22;32477;51.474;5.696;2022-11-11T17:40:29;7.80;99.90
46732;DHT22;32477;51.474;5.696;2022-11-11T17:42:55;7.80;99.90
46732;DHT22;32477;51.474;5.696;2022-11-11T17:45:20;7.70;99.90
46732;DHT22;32477;51.474;5.696;2022-11-11T17:47:46;7.70;99.90
46732;DHT22;32477;51.474;5.696;2022-11-11T17:50:12;7.50;99.90
46732;DHT22;32477;51.474;5.696;2022-11-11T17:52:37;7.50;99.90
46732;DHT22;32477;51.474;5.696;2022-11-11T17:55:03;7.40;99.90
46732;DHT22;32477;51.474;5.696;2022-11-11T17:57:30;7.20;99.90
46732;DHT22;32477;51.474;5.696;2022-11-11T17:59:56;7.10;99.90
46732;DHT22;32477;51.474;5.696;2022-11-11T18:02:22;7.00;99.90
46732;DHT22;32477;51.474;5.696;2022-11-11T18:04:47;6.90;99.90
46732;DHT22;32477;51.474;5.696;2022-11-11T18:07:13;6.90;99.90
46732;DHT22;32477;51.474;5.696;2022-11-11T18:09:39;6.90;99.90
46732;DHT22;32477;51.474;5.696;2022-11-11T18:12:04;6.80;99.90
46732;DHT22;32477;51.474;5.696;2022-11-11T18:14:31;6.70;99.90
46732;DHT22;32477;51.474;5.696;2022-11-11T18:16:57;6.60;99.90
46732;DHT22;32477;51.474;5.696;2022-11-11T18:19:22;6.50;99.90
46732;DHT22;32477;51.474;5.696;2022-11-11T18:21:48;6.50;99.90
46732;DHT22;32477;51.474;5.696;2022-11-11T18:24:14;6.40;99.90
46732;DHT22;32477;51.474;5.696;2022-11-11T18:26:40;6.30;99.90
46732;DHT22;32477;51.474;5.696;2022-11-11T18:29:06;6.40;99.90